Time;durP1;ratioP1;P1;durP2;ratioP2;P2;SDS_P1;SDS_P2;PMS_P1;PMS_P2;Temp;Humidity;BMP_temperature;BMP_pressure;BME280_temperature;BME280_humidity;BME280_pressure;Samples;Min_cycle;Max_cycle;Signal;HPM_P1;HPM_P2
2022/07/27 00:01:19;;;;;;;4.80;4.30;;;37.10;99.90;;;;;;5048038;28;20749;-95
2022/07/27 00:03:52;;;;;;;5.53;4.88;;;37.10;99.80;;;;;;5051862;28;20209;-95
2022/07/27 00:06:26;;;;;;;6.75;4.35;;;37.00;99.70;;;;;;5050016;28;20216;-95
2022/07/27 00:08:58;;;;;;;5.55;4.65;;;36.50;99.90;;;;;;5034322;28;20349;-94
2022/07/27 00:11:31;;;;;;;5.50;4.57;;;36.60;99.60;;;;;;5050617;28;20271;-94
2022/07/27 00:14:08;;;;;;;4.35;4.05;;;36.30;99.90;;;;;;5051298;28;20209;-95
2022/07/27 00:16:44;;;;;;;7.82;5.05;;;36.40;99.90;;;;;;5061016;28;20650;-94
2022/07/27 00:19:27;;;;;;;6.30;4.68;;;36.40;99.90;;;;;;5095707;22;20244;-94
2022/07/27 00:22:04;;;;;;;5.85;4.90;;;36.50;99.90;;;;;;5053532;28;20231;-95
2022/07/27 00:24:36;;;;;;;5.43;4.60;;;36.50;99.90;;;;;;5054573;28;20209;-95
2022/07/27 00:27:22;;;;;;;5.03;4.63;;;36.30;99.60;;;;;;5054454;28;20213;-95
2022/07/27 00:29:58;;;;;;;5.95;4.18;;;36.50;99.70;;;;;;5056201;28;20185;-95
2022/07/27 00:32:51;;;;;;;6.75;4.60;;;36.60;99.90;;;;;;5056962;28;20254;-95
2022/07/27 00:35:24;;;;;;;5.60;4.50;;;36.50;99.90;;;;;;5055359;28;20229;-94
2022/07/27 00:37:58;;;;;;;4.72;4.25;;;36.70;99.70;;;;;;5052731;28;20221;-94
2022/07/27 00:40:30;;;;;;;5.03;4.55;;;36.80;99.10;;;;;;5045736;28;20212;-95
2022/07/27 00:45:48;;;;;;;5.63;3.85;;;36.50;98.30;;;;;;5053304;28;20209;-95
2022/07/27 00:48:27;;;;;;;5.00;4.38;;;36.40;98.30;;;;;;5035642;28;20198;-94
2022/07/27 00:51:06;;;;;;;5.57;4.20;;;36.30;97.40;;;;;;5036053;28;20232;-95
2022/07/27 00:53:38;;;;;;;5.90;4.35;;;35.90;97.50;;;;;;5037108;28;20205;-94
2022/07/27 00:56:13;;;;;;;4.22;3.92;;;35.60;97.60;;;;;;5036647;28;20352;-94
2022/07/27 00:58:52;;;;;;;5.30;4.00;;;35.70;97.20;;;;;;5036831;28;20232;-94
2022/07/27 01:01:27;;;;;;;5.03;3.85;;;35.70;98.70;;;;;;5035984;28;20198;-93
2022/07/27 01:04:08;;;;;;;6.28;3.97;;;35.90;97.80;;;;;;5038027;28;20232;-94
2022/07/27 01:06:42;;;;;;;10.57;4.10;;;35.70;97.10;;;;;;5038737;28;20215;-94
2022/07/27 01:12:14;;;;;;;6.43;3.97;;;36.20;97.20;;;;;;5038558;28;20254;-94
2022/07/27 01:14:54;;;;;;;4.45;3.85;;;36.80;96.30;;;;;;5038282;28;20197;-93
2022/07/27 01:17:30;;;;;;;5.72;3.88;;;36.80;94.40;;;;;;5036832;28;20221;-94
2022/07/27 01:20:07;;;;;;;9.43;3.90;;;37.10;95.00;;;;;;5034995;28;20218;-94
2022/07/27 01:23:02;;;;;;;5.30;3.80;;;37.40;94.20;;;;;;5033145;28;20209;-94
2022/07/27 01:25:44;;;;;;;4.50;3.75;;;38.10;94.20;;;;;;5036308;28;20209;-93
2022/07/27 01:28:48;;;;;;;3.67;3.38;;;37.80;92.70;;;;;;5033177;28;20220;-94
2022/07/27 01:31:25;;;;;;;4.15;3.38;;;38.20;92.70;;;;;;5033652;28;20267;-94
2022/07/27 01:34:00;;;;;;;4.00;3.60;;;38.40;92.40;;;;;;5032592;28;20269;-94
2022/07/27 01:39:08;;;;;;;5.00;3.70;;;38.40;90.90;;;;;;5102336;28;20222;-95
2022/07/27 01:41:42;;;;;;;4.10;3.63;;;38.10;91.80;;;;;;5102041;28;20207;-95
2022/07/27 01:44:14;;;;;;;3.90;3.60;;;38.00;91.30;;;;;;5101605;28;20210;-94
2022/07/27 01:46:47;;;;;;;5.63;3.30;;;38.10;91.60;;;;;;5101157;28;20219;-95
2022/07/27 01:49:18;;;;;;;5.68;3.67;;;37.90;91.00;;;;;;5100698;28;20199;-95
2022/07/27 01:51:51;;;;;;;5.50;3.50;;;38.10;91.00;;;;;;5099896;28;20310;-95
2022/07/27 01:54:27;;;;;;;3.38;3.17;;;38.60;90.70;;;;;;5101239;28;20651;-94
2022/07/27 01:57:13;;;;;;;3.72;3.42;;;38.50;90.20;;;;;;5112322;28;20231;-94
2022/07/27 01:59:44;;;;;;;4.05;3.70;;;38.70;90.10;;;;;;5115860;28;20207;-94
2022/07/27 02:02:16;;;;;;;4.43;3.78;;;37.50;89.60;;;;;;5108050;28;20206;-94
2022/07/27 02:04:47;;;;;;;4.55;3.65;;;36.80;90.10;;;;;;5106540;28;20203;-93
2022/07/27 02:07:19;;;;;;;4.50;3.22;;;36.60;90.70;;;;;;5104061;28;20214;-94
2022/07/27 02:09:53;;;;;;;5.72;3.60;;;36.20;89.40;;;;;;5101487;28;20218;-94
2022/07/27 02:12:36;;;;;;;5.40;3.13;;;36.20;90.20;;;;;;5098910;28;20655;-95
2022/07/27 02:15:09;;;;;;;4.97;3.72;;;35.80;90.20;;;;;;5100455;28;20226;-95
2022/07/27 02:17:45;;;;;;;3.67;3.33;;;35.20;90.70;;;;;;5099875;28;20242;-95
2022/07/27 02:20:18;;;;;;;4.45;3.78;;;34.50;90.80;;;;;;5085042;28;20200;-95
2022/07/27 02:23:01;;;;;;;6.72;3.20;;;34.10;91.20;;;;;;5083135;28;20215;-96
2022/07/27 02:25:36;;;;;;;4.28;3.60;;;33.80;91.80;;;;;;5086131;28;20207;-96
2022/07/27 02:28:08;;;;;;;4.97;3.83;;;33.60;93.30;;;;;;5079716;28;20214;-96
2022/07/27 02:30:39;;;;;;;4.60;3.47;;;33.20;94.60;;;;;;5077629;28;20624;-96
2022/07/27 02:33:12;;;;;;;6.57;3.63;;;33.00;95.00;;;;;;5078446;28;20208;-96
2022/07/27 02:35:45;;;;;;;5.07;3.45;;;32.80;94.40;;;;;;5079889;28;20289;-96
2022/07/27 02:38:18;;;;;;;4.45;4.00;;;32.60;95.50;;;;;;5084072;28;20223;-96
2022/07/27 02:43:40;;;;;;;5.20;3.90;;;32.40;97.00;;;;;;5429933;22;20750;-96
2022/07/27 02:49:16;;;;;;;4.95;4.18;;;32.10;97.70;;;;;;5134973;22;20634;-95
2022/07/27 03:00:45;;;;;;;4.45;4.05;;;31.50;99.90;;;;;;5242266;22;20266;-96
2022/07/27 03:03:17;;;;;;;5.80;4.47;;;31.20;99.90;;;;;;5073058;28;20254;-96
2022/07/27 03:05:50;;;;;;;4.45;4.05;;;31.00;99.90;;;;;;5070988;28;20235;-96
2022/07/27 03:08:30;;;;;;;4.95;4.28;;;30.90;99.90;;;;;;5073487;28;20276;-95
2022/07/27 03:11:01;;;;;;;6.07;4.13;;;30.70;99.90;;;;;;5070592;28;20212;-96
2022/07/27 03:13:35;;;;;;;6.38;4.18;;;30.50;99.90;;;;;;5071101;28;20223;-96
2022/07/27 03:16:10;;;;;;;6.10;4.55;;;30.30;99.90;;;;;;5069402;28;20216;-96
2022/07/27 03:18:41;;;;;;;7.07;4.05;;;30.20;99.90;;;;;;5061763;28;20212;-96
2022/07/27 03:21:13;;;;;;;5.13;4.00;;;30.10;99.90;;;;;;5057454;28;20269;-96
2022/07/27 03:26:36;;;;;;;4.43;4.03;;;29.80;99.90;;;;;;5071367;28;20232;-96
2022/07/27 03:32:04;;;;;;;5.60;4.30;;;29.50;99.90;;;;;;5070288;28;20200;-96
2022/07/27 03:34:39;;;;;;;4.45;4.05;;;29.30;99.90;;;;;;5070688;28;20196;-96
2022/07/27 03:37:11;;;;;;;5.15;4.10;;;29.20;99.90;;;;;;5050836;28;20297;-95
2022/07/27 03:39:42;;;;;;;4.65;4.03;;;29.20;99.90;;;;;;5044908;28;20218;-96
2022/07/27 03:42:15;;;;;;;4.80;4.40;;;29.00;99.90;;;;;;5065754;28;20192;-96
2022/07/27 03:44:50;;;;;;;6.90;4.70;;;28.90;99.90;;;;;;5066049;28;20217;-96
2022/07/27 03:47:35;;;;;;;4.47;4.10;;;28.90;99.90;;;;;;5069445;28;20228;-96
2022/07/27 03:50:09;;;;;;;5.17;4.10;;;28.70;99.90;;;;;;5063266;28;20216;-96
2022/07/27 03:52:43;;;;;;;5.93;4.50;;;28.50;99.90;;;;;;5065590;28;20204;-95
2022/07/27 03:58:02;;;;;;;7.53;4.63;;;28.30;99.90;;;;;;5072725;28;20262;-95
2022/07/27 04:00:34;;;;;;;7.17;4.77;;;28.20;99.90;;;;;;5074985;28;20204;-95
2022/07/27 04:06:14;;;;;;;4.93;4.53;;;28.00;99.90;;;;;;5070094;28;20263;-95
2022/07/27 04:14:29;;;;;;;9.67;4.77;;;27.90;99.90;;;;;;5071006;28;20212;-95
2022/07/27 04:17:00;;;;;;;5.33;4.83;;;27.90;99.90;;;;;;5063391;28;20262;-95
2022/07/27 04:19:37;;;;;;;6.70;4.80;;;27.80;99.90;;;;;;5062625;28;20649;-95
2022/07/27 04:22:09;;;;;;;5.23;4.40;;;27.70;99.90;;;;;;5064942;28;20203;-96
2022/07/27 04:25:09;;;;;;;5.50;4.47;;;27.60;99.90;;;;;;5066069;28;20208;-96
2022/07/27 04:27:55;;;;;;;6.13;4.50;;;27.50;99.90;;;;;;5049912;28;20196;-96
2022/07/27 04:30:27;;;;;;;4.97;4.50;;;27.50;99.90;;;;;;5056841;28;20212;-96
2022/07/27 04:32:59;;;;;;;6.47;4.80;;;27.40;99.90;;;;;;5056621;28;20222;-96
2022/07/27 04:35:35;;;;;;;7.03;4.93;;;27.30;99.90;;;;;;5056464;28;20215;-96
2022/07/27 04:38:06;;;;;;;4.93;4.50;;;27.20;99.90;;;;;;5055647;28;20268;-96
2022/07/27 04:40:37;;;;;;;6.03;4.60;;;27.10;99.90;;;;;;5055467;28;20266;-95
2022/07/27 04:43:08;;;;;;;8.43;4.67;;;27.00;99.90;;;;;;5056974;28;20220;-96
2022/07/27 04:45:41;;;;;;;5.40;4.90;;;26.90;99.90;;;;;;5057003;28;20652;-96
2022/07/27 04:48:13;;;;;;;5.33;4.60;;;26.90;99.90;;;;;;5040296;28;20208;-96
2022/07/27 04:50:48;;;;;;;9.13;5.20;;;26.80;99.90;;;;;;5058042;28;20282;-96
2022/07/27 04:53:20;;;;;;;5.00;4.50;;;26.70;99.90;;;;;;5060241;28;20212;-94
2022/07/27 04:55:51;;;;;;;5.20;4.70;;;26.70;99.90;;;;;;5060435;28;20251;-93
2022/07/27 04:58:23;;;;;;;6.23;4.80;;;26.60;99.90;;;;;;5058422;28;20240;-94
2022/07/27 05:00:56;;;;;;;7.83;5.27;;;26.60;99.90;;;;;;5067288;28;20216;-94
2022/07/27 05:03:32;;;;;;;5.77;5.00;;;26.50;99.90;;;;;;5046880;28;20208;-94
2022/07/27 05:08:51;;;;;;;8.33;4.70;;;26.40;99.90;;;;;;5065072;28;20203;-95
2022/07/27 05:11:23;;;;;;;6.53;4.83;;;26.30;99.90;;;;;;5064846;28;20200;-94
2022/07/27 05:13:56;;;;;;;6.43;5.03;;;26.20;99.90;;;;;;5064580;28;20269;-95
2022/07/27 05:16:28;;;;;;;6.23;4.90;;;26.20;99.90;;;;;;5064684;28;20207;-95
2022/07/27 05:19:03;;;;;;;5.90;5.00;;;26.10;99.90;;;;;;5062526;28;20236;-94
2022/07/27 05:21:49;;;;;;;5.93;5.33;;;26.10;99.90;;;;;;5065778;28;20200;-95
2022/07/27 05:24:20;;;;;;;6.40;5.10;;;26.00;99.90;;;;;;5062206;28;20204;-94
2022/07/27 05:26:56;;;;;;;7.13;5.97;;;25.90;99.90;;;;;;5065630;28;20200;-94
2022/07/27 05:29:30;;;;;;;7.27;5.13;;;25.90;99.90;;;;;;5065932;28;20302;-94
2022/07/27 05:32:03;;;;;;;5.97;5.13;;;25.80;99.90;;;;;;5047444;28;20208;-95
2022/07/27 05:34:35;;;;;;;6.10;4.50;;;25.80;99.90;;;;;;5062790;28;20235;-95
2022/07/27 05:37:09;;;;;;;9.63;5.00;;;25.70;99.90;;;;;;5062067;28;20208;-95
2022/07/27 05:39:48;;;;;;;8.67;4.93;;;25.70;99.90;;;;;;5064172;28;20224;-94
2022/07/27 05:48:30;;;;;;;4.80;4.40;;;25.50;99.90;;;;;;5055226;28;20189;-95
2022/07/27 05:51:05;;;;;;;5.60;5.00;;;25.50;99.90;;;;;;5043174;28;20291;-95
2022/07/27 05:54:06;;;;;;;5.20;4.67;;;25.40;99.90;;;;;;5046730;28;20211;-94
2022/07/27 05:59:53;;;;;;;7.03;4.87;;;25.30;99.90;;;;;;5051592;28;20627;-94
2022/07/27 06:05:10;;;;;;;5.93;4.87;;;25.20;99.90;;;;;;5039603;28;20239;-95
2022/07/27 06:08:02;;;;;;;5.37;4.63;;;25.20;99.90;;;;;;5043117;28;20228;-95
2022/07/27 06:13:23;;;;;;;6.40;4.87;;;25.10;99.90;;;;;;5062011;28;20204;-95
2022/07/27 06:15:57;;;;;;;5.40;4.90;;;25.00;99.90;;;;;;5060994;28;20200;-95
2022/07/27 06:18:29;;;;;;;9.80;6.00;;;24.90;99.90;;;;;;5064317;28;20337;-96
2022/07/27 06:21:01;;;;;;;5.53;5.00;;;24.90;99.90;;;;;;5064023;28;20212;-95
2022/07/27 06:23:32;;;;;;;9.97;8.73;;;24.80;99.90;;;;;;5101908;22;20242;-95
2022/07/27 06:26:04;;;;;;;7.33;5.77;;;24.70;99.90;;;;;;5081456;28;20234;-96
2022/07/27 06:28:41;;;;;;;7.40;6.03;;;24.70;99.90;;;;;;5081179;28;20222;-95
2022/07/27 06:31:13;;;;;;;7.80;5.73;;;24.70;99.90;;;;;;5082392;28;20207;-95
2022/07/27 06:33:45;;;;;;;6.23;5.60;;;24.70;99.90;;;;;;5082589;28;20207;-96
2022/07/27 06:36:21;;;;;;;5.60;5.03;;;24.60;99.90;;;;;;5085105;28;20271;-95
2022/07/27 06:38:53;;;;;;;6.77;5.33;;;24.60;99.90;;;;;;5209601;22;20313;-96
2022/07/27 06:41:24;;;;;;;7.10;5.33;;;24.50;99.90;;;;;;5044754;28;20224;-96
2022/07/27 06:44:06;;;;;;;12.20;5.40;;;24.50;99.90;;;;;;5063297;28;20213;-95
2022/07/27 06:49:21;;;;;;;6.17;5.20;;;24.50;99.90;;;;;;5099120;22;20239;-96
2022/07/27 06:51:52;;;;;;;8.27;5.23;;;24.40;99.90;;;;;;5061882;28;20212;-96
2022/07/27 06:54:24;;;;;;;5.93;4.80;;;24.40;99.90;;;;;;5074229;28;20220;-96
2022/07/27 06:56:55;;;;;;;5.87;4.90;;;24.30;99.90;;;;;;5077542;28;20196;-96
2022/07/27 06:59:30;;;;;;;6.47;5.07;;;24.30;99.90;;;;;;5191564;22;20281;-94
2022/07/27 07:02:12;;;;;;;5.40;4.90;;;24.30;99.90;;;;;;5075975;28;20242;-94
2022/07/27 07:04:44;;;;;;;6.47;5.10;;;24.30;99.90;;;;;;5064072;28;20242;-94
2022/07/27 07:07:15;;;;;;;6.27;4.93;;;24.30;99.90;;;;;;5060479;28;20556;-94
2022/07/27 07:09:46;;;;;;;6.90;5.03;;;24.20;99.90;;;;;;5061205;28;20571;-94
2022/07/27 07:12:19;;;;;;;5.10;4.60;;;24.20;99.90;;;;;;5059380;28;20208;-94
2022/07/27 07:14:52;;;;;;;6.73;5.10;;;24.10;99.90;;;;;;5042454;28;20242;-94
2022/07/27 07:17:24;;;;;;;6.37;4.70;;;24.10;99.90;;;;;;5060996;28;20726;-93
2022/07/27 07:19:56;;;;;;;5.57;5.00;;;24.00;99.90;;;;;;5064825;28;20286;-92
2022/07/27 07:22:28;;;;;;;6.83;5.00;;;24.00;99.90;;;;;;5067412;28;20207;-94
2022/07/27 07:24:59;;;;;;;5.37;4.73;;;23.90;99.90;;;;;;5066591;28;20219;-92
2022/07/27 07:27:32;;;;;;;6.37;4.40;;;23.90;99.90;;;;;;5068544;28;20216;-95
2022/07/27 07:30:07;;;;;;;5.97;4.40;;;23.80;99.90;;;;;;5057674;28;20265;-95
2022/07/27 07:32:38;;;;;;;5.70;5.03;;;23.80;99.90;;;;;;5056714;28;20269;-95
2022/07/27 07:35:10;;;;;;;6.07;4.53;;;23.70;99.90;;;;;;5056925;28;20219;-95
2022/07/27 07:37:42;;;;;;;6.93;4.97;;;23.70;99.90;;;;;;5057774;28;20197;-95
2022/07/27 07:40:19;;;;;;;6.33;4.50;;;23.60;99.90;;;;;;5056881;28;20235;-95
2022/07/27 07:43:11;;;;;;;8.07;4.33;;;23.60;99.90;;;;;;5057329;28;20212;-95
2022/07/27 07:45:44;;;;;;;4.63;4.20;;;23.60;99.90;;;;;;5057414;28;20215;-95
2022/07/27 07:48:22;;;;;;;6.17;4.40;;;23.50;99.90;;;;;;5058302;28;20204;-95
2022/07/27 07:50:54;;;;;;;6.33;4.50;;;23.50;99.90;;;;;;5057186;28;20212;-94
2022/07/27 07:53:26;;;;;;;4.90;4.50;;;23.50;99.90;;;;;;5061575;28;20258;-95
2022/07/27 07:55:58;;;;;;;6.80;4.60;;;23.50;99.90;;;;;;5061569;28;20216;-95
2022/07/27 07:58:30;;;;;;;5.50;4.47;;;23.40;99.90;;;;;;5073110;28;20215;-96
2022/07/27 08:01:04;;;;;;;4.97;4.40;;;23.50;99.90;;;;;;5076122;28;20207;-95
2022/07/27 08:03:35;;;;;;;7.40;5.00;;;23.40;99.90;;;;;;5077111;28;20200;-95
2022/07/27 08:06:07;;;;;;;5.17;4.67;;;23.40;99.90;;;;;;5076936;28;20223;-96
2022/07/27 08:08:39;;;;;;;7.13;5.03;;;23.30;99.90;;;;;;5077107;28;20208;-96
2022/07/27 08:11:11;;;;;;;4.97;4.47;;;23.30;99.90;;;;;;5076315;28;20208;-96
2022/07/27 08:13:52;;;;;;;4.30;4.00;;;23.30;99.90;;;;;;5097218;22;20228;-96
2022/07/27 08:16:25;;;;;;;4.83;3.90;;;23.20;99.90;;;;;;5056975;28;20201;-95
2022/07/27 08:18:57;;;;;;;5.07;4.57;;;23.20;99.90;;;;;;5039230;28;20219;-96
2022/07/27 08:21:28;;;;;;;6.90;4.47;;;23.20;99.90;;;;;;5043871;28;20216;-94
2022/07/27 08:24:05;;;;;;;6.33;4.27;;;23.10;99.90;;;;;;5055547;28;20193;-96
2022/07/27 08:26:38;;;;;;;5.60;4.60;;;23.10;99.90;;;;;;5055242;28;20220;-92
2022/07/27 08:29:09;;;;;;;6.37;5.03;;;23.00;99.90;;;;;;5055453;28;20189;-96
2022/07/27 08:31:45;;;;;;;7.00;4.87;;;23.00;99.90;;;;;;5055233;28;20193;-95
2022/07/27 08:34:22;;;;;;;6.53;4.63;;;23.00;99.90;;;;;;5056946;28;20268;-95
2022/07/27 08:36:53;;;;;;;5.10;4.57;;;22.90;99.90;;;;;;5042727;28;20219;-96
2022/07/27 08:39:24;;;;;;;7.10;4.83;;;22.90;99.90;;;;;;5060037;28;20303;-95
2022/07/27 08:42:17;;;;;;;6.33;5.17;;;22.80;99.90;;;;;;5031519;28;20551;-95
2022/07/27 08:44:49;;;;;;;7.10;4.80;;;22.80;99.90;;;;;;5046462;28;20212;-96
2022/07/27 08:47:23;;;;;;;5.53;4.50;;;22.80;99.90;;;;;;5044149;28;20220;-96
2022/07/27 08:49:55;;;;;;;5.20;4.70;;;22.70;99.90;;;;;;5043758;28;20201;-95
2022/07/27 08:52:28;;;;;;;5.63;5.03;;;22.70;99.90;;;;;;5044872;28;20217;-95
2022/07/27 08:55:00;;;;;;;5.40;4.50;;;22.60;99.90;;;;;;5045388;28;20197;-95
2022/07/27 08:57:32;;;;;;;7.47;4.97;;;22.60;99.90;;;;;;5045135;28;20290;-96
2022/07/27 09:00:05;;;;;;;6.47;5.27;;;22.50;99.90;;;;;;5045859;28;20606;-96
2022/07/27 09:02:39;;;;;;;5.70;4.70;;;22.50;99.90;;;;;;5044298;28;20696;-96
2022/07/27 09:05:14;;;;;;;9.13;4.67;;;22.50;99.90;;;;;;5057168;28;20193;-94
2022/07/27 09:07:48;;;;;;;6.73;4.53;;;22.40;99.90;;;;;;5058491;28;20223;-94
2022/07/27 09:10:34;;;;;;;5.77;4.93;;;22.40;99.90;;;;;;5058470;28;20227;-95
2022/07/27 09:13:21;;;;;;;6.20;4.40;;;22.40;99.90;;;;;;5039304;28;20216;-95
2022/07/27 09:15:54;;;;;;;6.93;4.60;;;22.40;99.90;;;;;;5041987;28;20216;-94
2022/07/27 09:18:48;;;;;;;7.73;4.87;;;22.30;99.90;;;;;;5041022;28;20269;-93
2022/07/27 09:21:21;;;;;;;6.13;4.70;;;22.30;99.90;;;;;;5046973;28;20255;-94
2022/07/27 09:23:54;;;;;;;9.63;5.40;;;22.30;99.90;;;;;;5043197;28;20243;-95
2022/07/27 09:26:26;;;;;;;5.90;4.77;;;22.30;99.90;;;;;;5042334;28;20208;-94
2022/07/27 09:29:06;;;;;;;8.20;4.90;;;22.30;99.90;;;;;;5040776;28;20307;-94
2022/07/27 09:31:43;;;;;;;6.00;4.60;;;22.20;99.90;;;;;;5040001;28;20220;-93
2022/07/27 09:34:30;;;;;;;7.10;5.30;;;22.20;99.90;;;;;;5040053;28;20215;-93
2022/07/27 09:37:05;;;;;;;5.43;4.90;;;22.10;99.90;;;;;;5041246;28;20209;-94
2022/07/27 09:39:39;;;;;;;5.53;4.90;;;22.10;99.90;;;;;;5040246;28;20753;-94
2022/07/27 09:42:19;;;;;;;5.67;5.17;;;22.00;99.90;;;;;;5040423;28;20259;-94
2022/07/27 09:45:29;;;;;;;5.13;4.67;;;22.00;99.90;;;;;;5039817;28;20243;-94
2022/07/27 09:48:16;;;;;;;10.90;5.50;;;21.90;99.90;;;;;;5040641;28;20638;-95
2022/07/27 09:51:03;;;;;;;5.90;5.10;;;21.80;99.90;;;;;;5039544;28;20220;-94
2022/07/27 09:53:56;;;;;;;5.17;4.60;;;21.80;99.90;;;;;;5028078;28;20216;-94
2022/07/27 09:56:30;;;;;;;5.20;4.63;;;21.80;99.90;;;;;;5024921;28;20213;-94
2022/07/27 09:59:02;;;;;;;7.50;4.80;;;21.80;99.90;;;;;;5039451;28;20219;-94
2022/07/27 10:01:38;;;;;;;5.80;4.90;;;21.80;99.90;;;;;;5039236;28;20260;-95
2022/07/27 10:04:19;;;;;;;7.03;5.30;;;21.70;99.90;;;;;;5039869;28;20292;-94
2022/07/27 10:06:53;;;;;;;6.73;5.47;;;21.60;99.90;;;;;;5039800;28;20277;-94
2022/07/27 10:09:39;;;;;;;5.77;5.27;;;21.60;99.90;;;;;;5025255;28;20723;-94
2022/07/27 10:12:11;;;;;;;5.70;5.07;;;21.50;99.90;;;;;;5038826;28;20228;-94
2022/07/27 10:14:42;;;;;;;7.10;5.10;;;21.50;99.90;;;;;;5041086;28;20328;-94
2022/07/27 10:17:15;;;;;;;5.57;4.77;;;21.50;99.90;;;;;;5036008;28;20243;-94
2022/07/27 10:19:49;;;;;;;8.10;5.40;;;21.40;99.90;;;;;;5041181;28;20212;-93
2022/07/27 10:22:55;;;;;;;8.77;6.27;;;21.50;99.90;;;;;;5042705;28;20657;-94
2022/07/27 10:25:30;;;;;;;8.83;6.40;;;21.50;99.90;;;;;;5038470;28;20209;-94
2022/07/27 10:28:14;;;;;;;7.37;6.67;;;21.70;99.90;;;;;;5041227;28;20193;-95
2022/07/27 10:30:46;;;;;;;7.93;6.70;;;21.80;99.90;;;;;;5038505;28;20330;-94
2022/07/27 10:33:45;;;;;;;8.37;6.90;;;21.80;99.90;;;;;;5038564;28;20236;-94
2022/07/27 10:36:18;;;;;;;10.53;6.40;;;21.80;99.90;;;;;;5038845;28;20261;-94
2022/07/27 10:38:55;;;;;;;8.33;6.57;;;21.80;99.90;;;;;;5040623;28;20239;-94
2022/07/27 10:41:28;;;;;;;7.67;6.37;;;21.70;99.90;;;;;;5039893;28;20267;-95
2022/07/27 10:44:29;;;;;;;8.20;6.90;;;21.70;99.90;;;;;;5040021;28;20622;-93
2022/07/27 10:47:06;;;;;;;8.73;6.70;;;21.70;99.90;;;;;;5034178;28;20540;-94
2022/07/27 10:49:38;;;;;;;8.77;6.60;;;21.60;99.90;;;;;;5041474;28;20205;-95
2022/07/27 10:52:43;;;;;;;7.50;6.77;;;21.60;99.90;;;;;;5043966;28;20634;-94
2022/07/27 10:55:53;;;;;;;7.60;6.80;;;21.60;99.90;;;;;;5040135;28;20213;-94
2022/07/27 10:58:46;;;;;;;7.57;6.60;;;21.60;99.90;;;;;;5038863;28;20209;-94
2022/07/27 11:01:20;;;;;;;8.37;6.27;;;21.50;99.90;;;;;;5038364;28;20228;-94
2022/07/27 11:03:54;;;;;;;7.47;5.73;;;21.50;99.90;;;;;;5040971;28;20618;-94
2022/07/27 11:06:29;;;;;;;10.53;5.80;;;21.50;99.90;;;;;;5038362;28;20212;-94
2022/07/27 11:09:04;;;;;;;6.53;5.60;;;21.50;99.90;;;;;;5038615;28;20270;-94
2022/07/27 11:11:58;;;;;;;7.80;6.23;;;21.50;99.90;;;;;;5036990;28;20251;-95
2022/07/27 11:14:30;;;;;;;8.47;5.77;;;21.50;99.90;;;;;;5042153;28;20232;-94
2022/07/27 11:17:06;;;;;;;7.20;5.83;;;21.40;99.90;;;;;;5037643;28;20776;-95
2022/07/27 11:19:58;;;;;;;7.43;6.37;;;21.40;99.90;;;;;;5037476;28;20296;-94
2022/07/27 11:22:34;;;;;;;8.17;5.70;;;21.30;99.90;;;;;;5038849;28;20212;-94
2022/07/27 11:25:28;;;;;;;6.97;5.57;;;21.30;99.90;;;;;;5039404;28;20244;-95
2022/07/27 11:28:07;;;;;;;6.40;5.17;;;21.20;99.90;;;;;;5037486;28;20209;-95
2022/07/27 11:30:39;;;;;;;8.10;5.73;;;21.20;99.90;;;;;;5036480;28;20258;-94
2022/07/27 11:33:10;;;;;;;8.73;5.17;;;21.20;99.90;;;;;;5039828;28;20231;-94
2022/07/27 11:35:53;;;;;;;8.17;5.30;;;21.10;99.90;;;;;;5042484;28;20239;-95
2022/07/27 11:38:24;;;;;;;5.77;5.13;;;21.10;99.90;;;;;;5039905;28;20210;-94
2022/07/27 11:40:57;;;;;;;7.93;5.33;;;21.10;99.90;;;;;;5023973;28;20681;-94
2022/07/27 11:43:53;;;;;;;7.97;5.60;;;21.10;99.90;;;;;;5039432;28;20209;-94
2022/07/27 11:46:27;;;;;;;7.90;5.40;;;21.10;99.90;;;;;;5037168;28;20217;-94
2022/07/27 11:49:03;;;;;;;6.50;4.80;;;21.00;99.90;;;;;;5036645;28;20213;-94
2022/07/27 11:51:39;;;;;;;6.63;5.63;;;21.00;99.90;;;;;;5035154;28;20232;-94
2022/07/27 11:54:12;;;;;;;7.03;5.27;;;21.10;99.90;;;;;;5036901;28;20235;-94
2022/07/27 11:56:50;;;;;;;7.17;5.07;;;21.00;99.90;;;;;;5036232;28;20582;-94
2022/07/27 11:59:24;;;;;;;8.43;5.53;;;21.00;99.90;;;;;;5036079;28;20242;-94
2022/07/27 12:01:57;;;;;;;7.43;5.20;;;20.90;99.90;;;;;;5034819;28;20234;-94
2022/07/27 12:04:29;;;;;;;7.93;5.10;;;20.80;99.90;;;;;;5035626;28;20278;-94
2022/07/27 12:07:09;;;;;;;6.77;5.20;;;20.80;99.90;;;;;;5036776;28;20217;-94
2022/07/27 12:09:45;;;;;;;6.53;5.10;;;20.80;99.90;;;;;;5041003;28;20213;-94
2022/07/27 12:12:19;;;;;;;6.70;5.40;;;20.70;99.90;;;;;;5040680;28;20631;-94
2022/07/27 12:14:55;;;;;;;7.70;4.90;;;20.70;99.90;;;;;;5041860;28;20212;-94
2022/07/27 12:17:32;;;;;;;8.93;5.80;;;20.60;99.90;;;;;;5027853;28;20315;-94
2022/07/27 12:20:06;;;;;;;9.10;5.57;;;20.60;99.90;;;;;;5022452;28;20212;-95
2022/07/27 12:22:39;;;;;;;11.53;6.00;;;20.60;99.90;;;;;;5021396;28;20235;-95
2022/07/27 12:25:12;;;;;;;7.63;5.20;;;20.60;99.90;;;;;;5032335;28;20205;-95
2022/07/27 12:27:56;;;;;;;8.70;5.77;;;20.60;99.90;;;;;;5041650;28;20242;-95
2022/07/27 12:30:35;;;;;;;6.40;5.00;;;20.60;99.90;;;;;;5040713;28;20236;-95
2022/07/27 12:33:08;;;;;;;8.43;5.27;;;20.60;99.90;;;;;;5041163;28;20208;-95
2022/07/27 12:35:45;;;;;;;7.37;4.97;;;20.60;99.90;;;;;;5036807;28;20210;-95
2022/07/27 12:38:17;;;;;;;7.50;4.90;;;20.60;99.90;;;;;;5021854;28;20287;-95
2022/07/27 12:40:50;;;;;;;7.67;4.97;;;20.60;99.90;;;;;;5021237;28;20209;-94
2022/07/27 12:43:29;;;;;;;9.40;5.43;;;20.60;99.90;;;;;;5024443;28;20217;-95
2022/07/27 12:46:12;;;;;;;8.43;5.07;;;20.60;99.90;;;;;;5037210;28;20217;-94
2022/07/27 12:48:44;;;;;;;10.00;4.97;;;20.50;99.90;;;;;;5059333;28;20212;-95
2022/07/27 12:54:21;;;;;;;7.43;5.57;;;20.50;99.90;;;;;;5058704;28;20232;-95
2022/07/27 12:56:55;;;;;;;10.83;5.27;;;20.50;99.90;;;;;;5052795;28;20209;-95
2022/07/27 12:59:26;;;;;;;6.90;5.13;;;20.50;99.90;;;;;;5046317;28;20271;-94
2022/07/27 13:01:59;;;;;;;8.77;5.40;;;20.50;99.90;;;;;;5044236;28;20278;-94
2022/07/27 13:04:31;;;;;;;6.60;4.83;;;20.50;99.90;;;;;;5042941;28;20558;-94
2022/07/27 13:07:12;;;;;;;8.00;5.57;;;20.50;99.90;;;;;;5045634;28;20209;-94
2022/07/27 13:09:46;;;;;;;7.87;4.70;;;20.40;99.90;;;;;;5043482;28;20620;-94
2022/07/27 13:12:33;;;;;;;8.67;5.00;;;20.50;99.90;;;;;;5047905;28;20300;-94
2022/07/27 13:15:06;;;;;;;9.67;4.40;;;20.40;99.90;;;;;;5026697;28;20279;-93
2022/07/27 13:17:43;;;;;;;8.37;4.87;;;20.40;99.90;;;;;;5044991;28;20201;-94
2022/07/27 13:20:19;;;;;;;10.07;5.10;;;20.40;99.90;;;;;;5043685;28;20300;-93
2022/07/27 13:22:50;;;;;;;11.40;4.63;;;20.40;99.90;;;;;;5042727;28;20228;-95
2022/07/27 13:25:22;;;;;;;7.87;4.70;;;20.40;99.90;;;;;;5041737;28;20350;-94
2022/07/27 13:27:54;;;;;;;6.90;4.77;;;20.40;99.90;;;;;;5043474;28;20603;-94
2022/07/27 13:30:25;;;;;;;8.00;4.93;;;20.40;99.90;;;;;;5047553;28;20224;-95
2022/07/27 13:33:00;;;;;;;9.90;4.80;;;20.40;99.90;;;;;;5025039;28;20255;-94
2022/07/27 13:35:32;;;;;;;8.70;4.50;;;20.40;99.90;;;;;;5041989;28;20204;-95
2022/07/27 13:38:16;;;;;;;7.67;4.33;;;20.40;99.90;;;;;;5039938;28;20283;-95
2022/07/27 13:40:49;;;;;;;7.87;4.40;;;20.40;99.90;;;;;;5039529;28;20213;-94
2022/07/27 13:43:20;;;;;;;7.63;4.13;;;20.40;99.90;;;;;;5039457;28;20623;-94
2022/07/27 13:45:54;;;;;;;8.37;4.60;;;20.40;99.90;;;;;;5040114;28;20603;-94
2022/07/27 13:48:27;;;;;;;6.50;4.20;;;20.50;99.90;;;;;;5039678;28;20213;-94
2022/07/27 13:50:59;;;;;;;7.20;4.67;;;20.40;99.90;;;;;;5038475;28;20240;-95
2022/07/27 13:53:31;;;;;;;6.47;4.17;;;20.40;99.90;;;;;;5039464;28;20270;-94
2022/07/27 13:56:03;;;;;;;9.20;4.50;;;20.40;99.90;;;;;;5039782;28;20209;-93
2022/07/27 13:58:34;;;;;;;6.83;4.20;;;20.40;99.90;;;;;;5039363;28;20279;-94
2022/07/27 14:01:05;;;;;;;5.67;3.93;;;20.40;99.90;;;;;;5039343;28;20232;-93
2022/07/27 14:03:39;;;;;;;6.93;3.67;;;20.40;99.90;;;;;;5039505;28;20296;-94
2022/07/27 14:06:12;;;;;;;7.20;3.60;;;20.50;99.90;;;;;;5040527;28;20213;-94
2022/07/27 14:08:43;;;;;;;6.17;3.50;;;20.50;99.90;;;;;;5039697;28;20208;-94
2022/07/27 14:11:15;;;;;;;5.93;4.00;;;20.50;99.90;;;;;;5039984;28;20213;-94
2022/07/27 14:13:47;;;;;;;7.63;3.90;;;20.50;99.90;;;;;;5042139;28;20282;-94
2022/07/27 14:16:18;;;;;;;7.40;3.63;;;20.50;99.90;;;;;;5053332;28;20232;-94
2022/07/27 14:18:52;;;;;;;6.77;3.77;;;20.50;99.90;;;;;;5057169;28;20244;-94
2022/07/27 14:21:23;;;;;;;4.83;3.13;;;20.40;99.90;;;;;;5056110;28;20228;-93
2022/07/27 14:23:54;;;;;;;6.97;4.00;;;20.50;99.90;;;;;;5042226;28;20240;-94
2022/07/27 14:26:25;;;;;;;5.27;3.33;;;20.40;99.90;;;;;;5041223;28;20208;-94
2022/07/27 14:28:57;;;;;;;5.83;3.50;;;20.40;99.90;;;;;;5040564;28;20220;-94
2022/07/27 14:31:29;;;;;;;7.93;3.57;;;20.40;99.90;;;;;;5040422;28;20212;-94
2022/07/27 14:34:02;;;;;;;6.33;4.10;;;20.40;99.90;;;;;;5035937;28;20379;-94